Time;durP1;ratioP1;P1;durP2;ratioP2;P2;SDS_P1;SDS_P2;PMS_P1;PMS_P2;Temp;Humidity;BMP_temperature;BMP_pressure;BME280_temperature;BME280_humidity;BME280_pressure;Samples;Min_cycle;Max_cycle;Signal;HPM_P1;HPM_P2
2023/01/18 00:00:58;;;;;;;13.35;10.05;;;19.80;63.60;;;;;;5074092;28;20060;-14
2023/01/18 00:03:24;;;;;;;11.20;9.52;;;19.80;64.10;;;;;;5077356;28;20068;-15
2023/01/18 00:05:49;;;;;;;11.52;9.13;;;19.80;63.90;;;;;;5076894;28;20504;-14
2023/01/18 00:08:15;;;;;;;9.77;8.55;;;19.80;63.90;;;;;;5074203;28;20128;-14
2023/01/18 00:10:41;;;;;;;12.50;9.20;;;19.80;63.90;;;;;;5071195;28;20533;-14
2023/01/18 00:13:07;;;;;;;12.65;9.05;;;19.80;64.40;;;;;;5078551;28;20052;-14
2023/01/18 00:15:35;;;;;;;11.60;8.45;;;19.80;63.70;;;;;;5072265;28;20111;-15
2023/01/18 00:18:01;;;;;;;11.93;8.88;;;19.80;63.60;;;;;;5078632;28;20045;-15
2023/01/18 00:20:27;;;;;;;12.23;8.98;;;19.80;63.40;;;;;;5075217;28;20081;-14
2023/01/18 00:22:52;;;;;;;10.13;8.35;;;19.80;63.60;;;;;;5070103;28;20040;-17
2023/01/18 00:25:22;;;;;;;9.80;8.68;;;19.80;63.20;;;;;;5073284;28;20044;-13
2023/01/18 00:27:49;;;;;;;12.02;9.20;;;19.80;63.20;;;;;;5073387;28;20047;-14
2023/01/18 00:30:19;;;;;;;11.00;8.68;;;19.80;63.20;;;;;;5079246;28;20052;-15
2023/01/18 00:32:45;;;;;;;10.10;8.38;;;19.80;63.30;;;;;;5074948;28;20051;-20
2023/01/18 00:35:11;;;;;;;10.05;8.07;;;19.80;63.50;;;;;;5073647;28;20044;-13
2023/01/18 00:37:37;;;;;;;9.95;8.43;;;19.80;63.20;;;;;;5074360;28;20039;-17
2023/01/18 00:40:03;;;;;;;9.75;8.18;;;19.80;62.90;;;;;;5072261;28;20039;-15
2023/01/18 00:45:20;;;;;;;8.30;7.50;;;19.80;62.40;;;;;;5043976;27;20408;-15
2023/01/18 00:47:45;;;;;;;10.00;7.35;;;19.80;62.10;;;;;;5039908;28;20184;-16
2023/01/18 00:50:11;;;;;;;9.23;7.00;;;19.80;62.50;;;;;;5041600;28;20045;-15
2023/01/18 00:52:37;;;;;;;8.80;7.15;;;19.80;62.50;;;;;;5042229;28;20056;-14
2023/01/18 00:55:03;;;;;;;8.75;7.65;;;19.70;62.40;;;;;;5041724;28;20057;-16
2023/01/18 00:57:29;;;;;;;8.57;7.63;;;19.70;62.40;;;;;;5040299;28;20533;-15
2023/01/18 00:59:55;;;;;;;9.45;7.35;;;19.80;63.20;;;;;;5044114;28;20057;-15
2023/01/18 01:02:20;;;;;;;9.77;7.20;;;19.70;62.70;;;;;;5040228;28;20068;-15
2023/01/18 01:07:40;;;;;;;;;;;19.70;62.40;;;;;;4999261;28;20042;-15
2023/01/18 01:10:07;;;;;;;7.70;6.35;;;19.70;62.30;;;;;;5000152;28;20417;-18
2023/01/18 01:26:14;;;;;;;7.05;6.00;;;19.70;62.00;;;;;;5000703;28;20112;-15
2023/01/18 01:28:41;;;;;;;6.30;5.70;;;19.70;63.00;;;;;;5000360;28;20081;-16
2023/01/18 01:31:08;;;;;;;6.95;6.25;;;19.60;62.10;;;;;;5000374;28;20496;-15
2023/01/18 01:33:33;;;;;;;6.40;5.75;;;19.60;62.40;;;;;;5000385;28;20046;-16
2023/01/18 01:36:02;;;;;;;7.18;5.93;;;19.70;62.30;;;;;;5000442;28;20042;-16
2023/01/18 01:38:27;;;;;;;6.65;6.05;;;19.60;62.40;;;;;;4999487;28;20042;-15
2023/01/18 01:41:03;;;;;;;5.75;5.25;;;19.70;61.90;;;;;;4999581;28;20046;-17
2023/01/18 01:43:48;;;;;;;6.90;5.50;;;19.70;62.10;;;;;;5008918;28;20120;-14
2023/01/18 01:46:24;;;;;;;5.63;5.03;;;19.60;61.70;;;;;;5041286;28;20033;-14
2023/01/18 01:48:51;;;;;;;5.78;5.28;;;19.60;62.10;;;;;;5032158;28;20049;-25
2023/01/18 01:51:17;;;;;;;5.82;5.32;;;19.60;62.10;;;;;;5023142;28;20048;-18
2023/01/18 01:53:43;;;;;;;6.10;5.53;;;19.60;61.80;;;;;;5040573;28;20049;-16
2023/01/18 01:56:09;;;;;;;6.68;6.05;;;19.60;61.80;;;;;;5027811;28;20216;-15
2023/01/18 01:58:35;;;;;;;5.60;5.10;;;19.60;61.80;;;;;;5009593;28;20091;-15
2023/01/18 02:01:00;;;;;;;5.82;5.32;;;19.60;62.80;;;;;;5025597;28;20049;-16
2023/01/18 02:03:26;;;;;;;5.50;5.00;;;19.60;61.90;;;;;;5025884;28;20050;-14
2023/01/18 02:06:04;;;;;;;5.15;4.70;;;19.60;61.80;;;;;;5027610;28;20045;-26
2023/01/18 02:08:29;;;;;;;5.63;5.13;;;19.60;61.70;;;;;;5025899;28;20037;-14
2023/01/18 02:10:55;;;;;;;4.88;4.40;;;19.60;61.90;;;;;;5027454;28;20569;-14
2023/01/18 02:13:21;;;;;;;5.18;4.78;;;19.60;61.60;;;;;;5026350;28;20037;-16
2023/01/18 02:16:00;;;;;;;6.32;5.35;;;19.60;61.90;;;;;;5026563;28;20132;-14
2023/01/18 02:18:46;;;;;;;5.00;4.60;;;19.60;61.50;;;;;;5026138;28;20034;-14
2023/01/18 02:21:19;;;;;;;4.75;4.28;;;19.60;61.50;;;;;;5021316;28;20148;-15
2023/01/18 02:24:07;;;;;;;4.65;4.30;;;19.60;61.40;;;;;;5025717;28;20068;-14
2023/01/18 02:26:48;;;;;;;4.85;4.38;;;19.60;61.40;;;;;;5025404;28;20466;-16
2023/01/18 02:29:17;;;;;;;4.50;4.20;;;19.60;61.90;;;;;;5026581;28;20120;-15
2023/01/18 02:31:49;;;;;;;4.50;4.20;;;19.60;62.10;;;;;;5017311;28;20518;-16
2023/01/18 02:34:40;;;;;;;5.03;4.60;;;19.50;62.00;;;;;;5028352;28;20124;-17
2023/01/18 02:37:09;;;;;;;5.00;4.50;;;19.50;61.80;;;;;;5025572;28;20042;-16
2023/01/18 02:40:14;;;;;;;4.60;4.18;;;19.50;62.70;;;;;;5024428;28;20417;-20
2023/01/18 02:48:43;;;;;;;4.80;4.30;;;19.40;62.90;;;;;;4981043;28;20045;-14
2023/01/18 02:51:09;;;;;;;4.32;3.92;;;19.30;62.80;;;;;;4997700;28;20054;-19
2023/01/18 02:53:37;;;;;;;4.65;4.30;;;19.40;62.80;;;;;;4990678;28;20038;-16
2023/01/18 02:56:19;;;;;;;4.65;4.25;;;19.40;62.80;;;;;;4987951;28;20606;-19
2023/01/18 02:58:47;;;;;;;4.85;4.45;;;19.40;63.60;;;;;;4973334;28;20046;-15
2023/01/18 03:01:17;;;;;;;4.28;3.97;;;19.40;62.80;;;;;;4980869;28;20085;-15
2023/01/18 03:03:44;;;;;;;3.95;3.65;;;19.30;62.80;;;;;;4973162;28;20132;-15
2023/01/18 03:06:10;;;;;;;4.90;4.30;;;19.40;63.60;;;;;;4981681;28;20525;-14
2023/01/18 03:08:49;;;;;;;4.78;4.38;;;19.40;62.60;;;;;;4993883;28;20099;-16
2023/01/18 03:11:24;;;;;;;4.35;4.05;;;19.40;62.70;;;;;;4993531;28;20050;-18
2023/01/18 03:14:00;;;;;;;4.10;3.70;;;19.40;62.60;;;;;;4997046;28;20041;-17
2023/01/18 03:16:38;;;;;;;4.03;3.72;;;19.40;62.50;;;;;;4993746;28;20046;-15
2023/01/18 03:21:52;;;;;;;4.35;4.00;;;19.40;62.70;;;;;;4989698;28;20055;-19
2023/01/18 03:24:18;;;;;;;4.07;3.78;;;19.40;62.70;;;;;;5024724;28;20053;-17
2023/01/18 03:26:45;;;;;;;4.32;3.92;;;19.30;62.70;;;;;;5024199;28;20130;-17
2023/01/18 03:34:58;;;;;;;4.10;3.78;;;19.30;62.60;;;;;;5022639;28;20618;-16
2023/01/18 03:37:29;;;;;;;3.53;3.30;;;19.40;62.60;;;;;;5025412;28;20076;-20
2023/01/18 03:40:22;;;;;;;3.53;3.28;;;19.40;62.60;;;;;;5025648;28;20088;-17
2023/01/18 03:43:02;;;;;;;3.60;3.30;;;19.40;62.40;;;;;;5019396;28;20041;-14
2023/01/18 03:45:44;;;;;;;3.53;3.33;;;19.30;62.50;;;;;;5021399;28;20168;-16
2023/01/18 03:48:10;;;;;;;3.58;3.30;;;19.40;62.50;;;;;;5025690;28;20030;-22
2023/01/18 03:51:13;;;;;;;3.78;3.47;;;19.40;62.40;;;;;;5022813;28;20048;-16
2023/01/18 03:53:47;;;;;;;3.47;3.28;;;19.40;63.10;;;;;;5015082;28;20049;-14
2023/01/18 03:56:48;;;;;;;3.42;3.22;;;19.30;62.20;;;;;;5025624;28;20507;-17
2023/01/18 03:59:14;;;;;;;3.80;3.50;;;19.40;62.40;;;;;;5018754;28;20053;-16
2023/01/18 04:01:40;;;;;;;3.55;3.10;;;19.40;62.40;;;;;;5022571;28;20040;-14
2023/01/18 04:04:05;;;;;;;3.13;2.92;;;19.40;62.30;;;;;;5024628;28;20054;-15
2023/01/18 04:06:31;;;;;;;3.47;3.22;;;19.40;62.10;;;;;;5025825;28;20581;-15
2023/01/18 04:08:57;;;;;;;3.40;3.20;;;19.40;62.00;;;;;;5025824;28;20047;-14
2023/01/18 04:11:22;;;;;;;2.88;2.70;;;19.30;62.10;;;;;;5025559;28;20071;-14
2023/01/18 04:13:48;;;;;;;3.60;3.40;;;19.30;62.30;;;;;;5023230;28;20072;-25
2023/01/18 04:16:13;;;;;;;3.50;3.20;;;19.30;62.20;;;;;;5024764;28;20040;-15
2023/01/18 04:18:39;;;;;;;3.85;3.55;;;19.30;62.30;;;;;;5023077;28;20103;-17
2023/01/18 04:21:05;;;;;;;3.13;2.92;;;19.40;62.20;;;;;;5023948;28;20053;-16
2023/01/18 04:23:30;;;;;;;3.50;3.20;;;19.40;62.10;;;;;;5024813;28;20811;-16
2023/01/18 04:25:56;;;;;;;3.47;2.95;;;19.30;62.20;;;;;;5023688;28;20052;-16
2023/01/18 04:28:24;;;;;;;2.70;2.55;;;19.40;62.20;;;;;;5024218;28;20560;-15
2023/01/18 04:30:51;;;;;;;2.90;2.70;;;19.40;62.00;;;;;;5021928;28;20053;-14
2023/01/18 04:33:19;;;;;;;3.42;3.20;;;19.30;62.00;;;;;;5024426;28;20050;-16
2023/01/18 04:35:45;;;;;;;3.10;2.90;;;19.30;62.00;;;;;;5022346;28;20085;-15
2023/01/18 04:38:11;;;;;;;2.95;2.75;;;19.30;62.10;;;;;;5025114;28;20041;-15
2023/01/18 04:40:36;;;;;;;2.75;2.55;;;19.30;62.00;;;;;;5024045;28;20564;-15
2023/01/18 04:43:03;;;;;;;3.00;2.80;;;19.40;62.70;;;;;;5027036;28;20055;-15
2023/01/18 04:45:29;;;;;;;2.35;2.20;;;19.30;61.90;;;;;;5022213;28;20092;-13
2023/01/18 04:47:54;;;;;;;3.00;2.72;;;19.30;62.00;;;;;;5022568;28;20049;-15
2023/01/18 04:50:20;;;;;;;2.88;2.63;;;19.30;61.90;;;;;;5024558;28;20046;-17
2023/01/18 04:52:45;;;;;;;2.75;2.55;;;19.30;61.90;;;;;;5019173;28;20049;-15
2023/01/18 04:55:14;;;;;;;2.90;2.70;;;19.30;61.70;;;;;;5019069;28;20042;-14
2023/01/18 04:57:43;;;;;;;2.70;2.50;;;19.30;62.00;;;;;;5018577;28;20049;-15
2023/01/18 05:00:10;;;;;;;2.20;2.10;;;19.30;62.20;;;;;;5023164;28;20045;-16
2023/01/18 05:02:35;;;;;;;2.60;2.40;;;19.30;63.20;;;;;;5023049;28;20121;-16
2023/01/18 05:05:03;;;;;;;3.03;2.67;;;19.30;63.80;;;;;;5023937;28;20463;-14
2023/01/18 05:07:30;;;;;;;2.78;2.58;;;19.30;64.30;;;;;;5023096;28;20047;-17
2023/01/18 05:09:55;;;;;;;5.53;2.65;;;19.30;64.60;;;;;;5023064;28;20470;-15
2023/01/18 05:12:21;;;;;;;2.30;2.10;;;19.20;64.10;;;;;;5018632;28;20046;-15
2023/01/18 05:14:47;;;;;;;2.30;2.10;;;19.10;64.40;;;;;;5023046;28;20140;-15
2023/01/18 05:17:13;;;;;;;2.65;2.42;;;19.30;64.70;;;;;;5025337;28;20137;-14
2023/01/18 05:19:39;;;;;;;10.90;2.10;;;19.30;64.40;;;;;;5025772;28;20056;-14
2023/01/18 05:22:05;;;;;;;2.50;2.30;;;19.30;64.40;;;;;;5025638;28;20038;-14
2023/01/18 05:24:31;;;;;;;3.83;2.35;;;19.20;64.20;;;;;;5023692;28;20107;-15
2023/01/18 05:26:57;;;;;;;2.28;2.08;;;19.10;64.90;;;;;;5025461;28;20094;-16
2023/01/18 05:29:22;;;;;;;2.65;2.10;;;19.10;64.80;;;;;;5026556;28;20033;-16
2023/01/18 05:31:48;;;;;;;2.30;2.10;;;19.10;64.80;;;;;;5028807;28;20076;-14
2023/01/18 05:34:14;;;;;;;2.17;1.98;;;19.10;64.90;;;;;;5030017;28;20045;-15
2023/01/18 05:36:39;;;;;;;2.22;2.03;;;19.00;64.90;;;;;;5029381;28;20076;-13
2023/01/18 05:39:05;;;;;;;2.88;2.10;;;19.20;64.60;;;;;;5030165;28;20502;-14
2023/01/18 05:41:31;;;;;;;2.47;2.28;;;19.10;64.40;;;;;;5027898;28;20118;-13
2023/01/18 05:43:56;;;;;;;3.13;2.05;;;19.10;64.80;;;;;;5029074;28;20049;-17
2023/01/18 05:46:22;;;;;;;3.15;2.10;;;19.10;64.60;;;;;;5030435;28;20042;-18
2023/01/18 05:48:47;;;;;;;2.60;2.40;;;19.10;64.60;;;;;;5028885;28;20029;-16
2023/01/18 05:51:13;;;;;;;3.75;2.00;;;19.00;64.50;;;;;;5028074;28;20049;-14
2023/01/18 05:53:39;;;;;;;1.90;1.80;;;19.10;64.50;;;;;;5028542;28;20546;-16
2023/01/18 05:56:05;;;;;;;2.03;1.70;;;19.20;64.10;;;;;;5028762;28;20193;-15
2023/01/18 05:58:31;;;;;;;2.30;2.20;;;19.20;64.10;;;;;;5026236;28;20044;-14
2023/01/18 06:00:57;;;;;;;2.40;2.25;;;19.30;64.70;;;;;;5029612;28;20045;-25
2023/01/18 06:03:23;;;;;;;2.78;2.00;;;19.20;64.20;;;;;;5028102;28;20131;-14
2023/01/18 06:05:50;;;;;;;2.10;1.80;;;19.20;64.20;;;;;;5025024;28;20179;-15
2023/01/18 06:08:16;;;;;;;1.90;1.80;;;19.10;64.00;;;;;;5031899;28;20414;-16
2023/01/18 06:10:42;;;;;;;1.80;1.70;;;19.10;64.20;;;;;;5027761;28;20490;-14
2023/01/18 06:13:08;;;;;;;2.00;1.90;;;19.10;64.20;;;;;;5025160;28;20038;-19
2023/01/18 06:15:33;;;;;;;2.03;1.92;;;19.00;64.20;;;;;;5028020;28;20040;-16
2023/01/18 06:17:59;;;;;;;1.73;1.63;;;19.00;64.30;;;;;;5027508;28;20038;-14
2023/01/18 06:20:29;;;;;;;1.90;1.80;;;19.00;64.20;;;;;;5030722;28;20037;-14
2023/01/18 06:22:55;;;;;;;2.10;1.90;;;19.00;64.00;;;;;;5026229;28;20164;-15
2023/01/18 06:25:21;;;;;;;1.77;1.67;;;19.10;63.90;;;;;;5028907;28;20506;-15
2023/01/18 06:27:46;;;;;;;2.00;1.90;;;19.00;63.80;;;;;;5025655;28;20038;-14
2023/01/18 06:30:12;;;;;;;2.00;1.90;;;18.90;64.10;;;;;;5027246;28;20423;-14
2023/01/18 06:32:38;;;;;;;1.88;1.77;;;18.90;64.20;;;;;;5025884;28;20048;-16
2023/01/18 06:35:04;;;;;;;1.48;1.38;;;19.00;64.00;;;;;;5025955;28;20033;-14
2023/01/18 06:37:29;;;;;;;1.70;1.60;;;19.00;63.80;;;;;;5029313;28;20147;-14
2023/01/18 06:39:55;;;;;;;1.58;1.48;;;19.00;63.50;;;;;;5027698;28;20076;-15
2023/01/18 06:42:20;;;;;;;2.10;1.90;;;18.90;63.80;;;;;;5028265;28;20107;-16
2023/01/18 06:44:46;;;;;;;1.50;1.40;;;18.90;63.80;;;;;;5028778;28;20536;-15
2023/01/18 06:47:14;;;;;;;2.08;1.80;;;19.00;63.70;;;;;;5025094;28;20044;-15
2023/01/18 06:49:39;;;;;;;1.50;1.40;;;19.00;63.60;;;;;;5028954;28;20034;-15
2023/01/18 06:52:05;;;;;;;1.50;1.40;;;19.00;63.50;;;;;;5028476;28;20072;-15
2023/01/18 06:54:30;;;;;;;1.48;1.38;;;19.00;63.20;;;;;;5028915;28;20030;-14
2023/01/18 06:56:56;;;;;;;1.52;1.10;;;18.90;63.50;;;;;;5026675;28;20069;-15
2023/01/18 06:59:22;;;;;;;1.17;1.17;;;18.80;63.50;;;;;;5027480;28;20041;-16
2023/01/18 07:01:47;;;;;;;1.83;1.08;;;18.90;63.30;;;;;;5022514;28;20091;-13
2023/01/18 07:04:13;;;;;;;1.50;1.40;;;18.90;63.50;;;;;;5028507;28;20060;-14
2023/01/18 07:06:38;;;;;;;1.60;1.52;;;19.00;63.70;;;;;;5021182;28;20439;-14
2023/01/18 07:09:06;;;;;;;1.52;1.42;;;18.90;64.00;;;;;;5023615;28;20037;-14
2023/01/18 07:11:32;;;;;;;2.35;1.40;;;18.80;64.50;;;;;;5026930;28;20110;-13
2023/01/18 07:13:57;;;;;;;1.55;1.45;;;18.60;64.20;;;;;;5026291;28;20049;-13
2023/01/18 07:16:23;;;;;;;1.58;1.48;;;18.50;64.40;;;;;;5028287;28;20057;-14
2023/01/18 07:18:49;;;;;;;1.50;1.35;;;18.60;64.40;;;;;;5027066;28;20041;-14
2023/01/18 07:21:15;;;;;;;1.67;1.58;;;18.60;64.30;;;;;;5028587;28;20049;-15
2023/01/18 07:23:41;;;;;;;1.45;1.35;;;18.50;64.30;;;;;;5026024;28;20069;-13
2023/01/18 07:26:15;;;;;;;1.70;1.60;;;18.60;64.50;;;;;;5027265;28;20135;-13
2023/01/18 07:28:41;;;;;;;1.52;1.42;;;18.60;64.30;;;;;;5027477;28;20044;-13
2023/01/18 07:31:07;;;;;;;1.50;1.40;;;18.70;64.90;;;;;;5028024;28;20049;-24
2023/01/18 07:33:33;;;;;;;2.53;1.52;;;18.60;64.10;;;;;;5028256;28;20041;-14
2023/01/18 07:35:59;;;;;;;1.40;1.30;;;18.70;63.90;;;;;;5026818;28;20319;-14
2023/01/18 07:38:25;;;;;;;1.15;1.15;;;18.70;63.80;;;;;;5026825;28;20045;-15
2023/01/18 07:40:50;;;;;;;1.10;1.00;;;18.70;63.80;;;;;;5025674;28;20137;-16
2023/01/18 07:43:16;;;;;;;1.75;1.23;;;18.90;63.80;;;;;;5026045;28;20061;-14
2023/01/18 07:45:42;;;;;;;2.60;1.48;;;18.90;62.90;;;;;;5026358;28;20041;-14
2023/01/18 07:48:07;;;;;;;1.40;1.30;;;18.90;63.20;;;;;;5027456;28;20038;-13
2023/01/18 07:50:33;;;;;;;1.27;1.17;;;18.70;63.50;;;;;;5027148;28;20044;-14
2023/01/18 07:53:03;;;;;;;1.40;1.30;;;18.70;63.70;;;;;;5026389;28;20041;-14
2023/01/18 07:55:31;;;;;;;1.45;1.35;;;18.70;63.80;;;;;;5027746;28;20050;-13
2023/01/18 07:57:57;;;;;;;1.50;1.40;;;18.60;63.80;;;;;;5027093;28;20049;-13
2023/01/18 08:00:24;;;;;;;1.88;1.40;;;18.60;64.10;;;;;;5026851;28;20041;-14
2023/01/18 08:02:50;;;;;;;1.33;1.23;;;18.60;64.00;;;;;;5027007;28;20122;-14
2023/01/18 08:05:19;;;;;;;1.38;1.20;;;18.60;64.10;;;;;;5026804;28;20514;-14
2023/01/18 08:07:45;;;;;;;1.77;1.20;;;18.60;63.90;;;;;;5026692;28;20049;-13
2023/01/18 08:10:10;;;;;;;1.30;1.20;;;18.50;64.00;;;;;;5027423;28;20053;-13
2023/01/18 08:12:36;;;;;;;1.35;1.25;;;18.50;64.10;;;;;;5026602;28;20098;-13
2023/01/18 08:15:03;;;;;;;1.42;1.33;;;18.50;63.80;;;;;;5026047;28;20052;-14
2023/01/18 08:17:29;;;;;;;1.55;1.45;;;18.50;64.10;;;;;;5027555;28;20127;-14
2023/01/18 08:19:55;;;;;;;1.60;1.50;;;18.50;64.10;;;;;;5022429;28;20122;-13
2023/01/18 08:22:20;;;;;;;1.50;1.40;;;18.50;64.20;;;;;;5027080;28;20502;-14
2023/01/18 08:24:46;;;;;;;1.45;1.20;;;18.50;64.00;;;;;;5026635;28;20037;-14
2023/01/18 08:27:12;;;;;;;1.60;1.50;;;18.60;64.40;;;;;;5027070;28;20048;-14
2023/01/18 08:29:37;;;;;;;1.63;1.52;;;18.60;63.90;;;;;;5026145;28;20045;-13
2023/01/18 08:32:03;;;;;;;1.60;1.50;;;18.50;64.10;;;;;;5026133;28;20826;-13
2023/01/18 08:34:28;;;;;;;1.63;1.52;;;18.50;64.00;;;;;;5022329;28;20044;-14
2023/01/18 08:36:54;;;;;;;1.33;1.23;;;18.40;64.20;;;;;;5025743;28;20051;-14
2023/01/18 08:39:19;;;;;;;2.13;1.58;;;18.50;63.80;;;;;;5025673;28;20407;-13
2023/01/18 08:41:45;;;;;;;1.42;1.33;;;18.50;64.00;;;;;;5026894;28;20053;-14
2023/01/18 08:44:11;;;;;;;1.40;1.30;;;18.50;64.20;;;;;;5027302;28;20144;-13
2023/01/18 08:46:38;;;;;;;1.40;1.30;;;18.50;63.80;;;;;;5025763;28;20041;-15
2023/01/18 08:49:05;;;;;;;1.40;1.30;;;18.50;63.80;;;;;;5025387;28;20065;-14
2023/01/18 08:51:31;;;;;;;1.40;1.30;;;18.50;64.40;;;;;;5026569;28;20046;-14
2023/01/18 08:53:58;;;;;;;1.38;1.27;;;18.40;63.80;;;;;;5025267;28;20538;-15
2023/01/18 08:56:23;;;;;;;1.15;1.15;;;18.40;63.80;;;;;;5026479;28;20033;-13
2023/01/18 08:58:50;;;;;;;1.50;1.40;;;18.40;64.90;;;;;;5026940;28;20034;-13
2023/01/18 09:01:16;;;;;;;1.08;1.08;;;18.30;64.10;;;;;;5026410;28;20049;-14
2023/01/18 09:03:42;;;;;;;2.00;1.27;;;18.30;64.30;;;;;;5023489;28;20093;-13
2023/01/18 09:06:08;;;;;;;1.42;1.33;;;18.20;64.20;;;;;;5028908;28;20040;-13
2023/01/18 09:08:33;;;;;;;1.10;1.10;;;18.20;64.20;;;;;;5029536;28;20048;-13
2023/01/18 09:11:03;;;;;;;1.33;1.23;;;18.20;64.20;;;;;;5028734;28;20030;-24
2023/01/18 09:13:29;;;;;;;1.08;1.05;;;18.30;64.10;;;;;;5030448;28;20180;-13
2023/01/18 09:15:59;;;;;;;1.38;1.25;;;18.20;64.10;;;;;;5029005;28;20073;-13
2023/01/18 09:18:24;;;;;;;1.38;1.27;;;18.30;64.20;;;;;;5029277;28;20045;-14
2023/01/18 09:20:53;;;;;;;1.30;1.20;;;18.20;64.10;;;;;;5029517;28;20502;-13
2023/01/18 09:23:18;;;;;;;1.00;1.00;;;18.20;64.20;;;;;;5028202;28;20095;-13
2023/01/18 09:25:44;;;;;;;0.90;0.90;;;18.30;64.00;;;;;;5029865;28;20034;-13
2023/01/18 09:28:10;;;;;;;1.10;1.10;;;18.30;64.10;;;;;;5030118;28;20037;-13
2023/01/18 09:30:36;;;;;;;1.30;1.20;;;18.20;64.20;;;;;;5030216;28;20084;-14
2023/01/18 09:33:02;;;;;;;1.15;1.05;;;18.20;64.20;;;;;;5029166;28;20049;-21
2023/01/18 09:35:27;;;;;;;1.02;1.02;;;18.20;64.00;;;;;;5029845;28;20041;-13
2023/01/18 09:37:54;;;;;;;1.15;1.15;;;18.30;63.90;;;;;;5029549;28;20129;-13
2023/01/18 09:40:20;;;;;;;1.15;1.05;;;18.30;63.90;;;;;;5028643;28;20052;-13
2023/01/18 09:42:47;;;;;;;1.30;1.20;;;18.30;63.90;;;;;;5028251;28;20044;-14
2023/01/18 09:45:31;;;;;;;1.27;1.17;;;18.30;63.70;;;;;;5029549;28;20100;-14
2023/01/18 09:48:04;;;;;;;1.00;1.00;;;18.30;63.70;;;;;;5029231;28;20041;-14
2023/01/18 09:50:30;;;;;;;1.00;1.00;;;18.30;63.60;;;;;;5011334;28;20479;-15
2023/01/18 09:52:58;;;;;;;0.90;0.90;;;18.40;63.70;;;;;;5027307;28;20406;-14
2023/01/18 09:56:05;;;;;;;1.05;1.05;;;18.30;64.00;;;;;;5027918;28;20076;-15
2023/01/18 09:58:40;;;;;;;1.20;1.20;;;18.30;64.00;;;;;;5005570;28;20092;-14
2023/01/18 10:01:11;;;;;;;0.90;0.90;;;18.40;64.00;;;;;;4988967;28;20108;-14
2023/01/18 10:03:56;;;;;;;1.33;1.23;;;18.30;63.90;;;;;;5018720;28;20046;-15
2023/01/18 10:06:24;;;;;;;0.98;0.98;;;18.40;64.10;;;;;;5004071;28;20473;-15
2023/01/18 10:08:52;;;;;;;1.05;1.05;;;18.40;64.30;;;;;;5014085;28;20840;-14
2023/01/18 10:11:44;;;;;;;0.80;0.80;;;18.40;64.20;;;;;;5006312;28;20049;-14
2023/01/18 10:14:34;;;;;;;0.98;0.90;;;18.40;64.20;;;;;;5004821;28;20161;-14
2023/01/18 10:17:02;;;;;;;0.70;0.70;;;18.40;63.90;;;;;;5003685;28;20095;-24
2023/01/18 10:19:28;;;;;;;0.88;0.88;;;18.40;63.90;;;;;;4991650;28;20133;-13
2023/01/18 10:22:14;;;;;;;0.80;0.80;;;18.50;63.70;;;;;;4988925;28;20120;-13
2023/01/18 10:24:56;;;;;;;0.80;0.80;;;18.50;64.00;;;;;;5013551;28;20053;-14
2023/01/18 10:27:39;;;;;;;1.52;1.17;;;18.50;63.80;;;;;;5018988;28;20041;-13
2023/01/18 10:30:37;;;;;;;0.90;0.90;;;18.50;63.80;;;;;;5014788;28;20045;-13
2023/01/18 10:33:34;;;;;;;0.80;0.80;;;18.50;64.00;;;;;;4997754;28;20646;-14
2023/01/18 10:36:01;;;;;;;0.63;0.63;;;18.60;64.70;;;;;;5049459;28;20124;-14
2023/01/18 10:38:27;;;;;;;0.73;0.73;;;18.50;64.40;;;;;;5028155;28;20056;-14
2023/01/18 10:40:58;;;;;;;0.80;0.80;;;18.60;63.50;;;;;;5028785;28;20136;-14
2023/01/18 10:43:24;;;;;;;0.68;0.68;;;18.60;63.40;;;;;;5028569;28;20056;-14
2023/01/18 10:45:52;;;;;;;0.98;0.98;;;18.70;63.20;;;;;;5027441;28;20041;-13
2023/01/18 10:48:23;;;;;;;0.90;0.90;;;18.70;62.80;;;;;;5029325;28;20063;-13
2023/01/18 10:50:54;;;;;;;0.80;0.80;;;18.70;62.80;;;;;;5027078;28;20037;-13
2023/01/18 10:53:23;;;;;;;0.52;0.52;;;18.70;62.80;;;;;;5025822;28;20052;-13
2023/01/18 10:55:54;;;;;;;0.55;0.55;;;18.70;62.90;;;;;;5024479;28;20041;-13
2023/01/18 10:58:43;;;;;;;0.70;0.65;;;18.60;63.00;;;;;;5023668;28;20042;-14
2023/01/18 11:01:21;;;;;;;0.60;0.60;;;18.70;62.80;;;;;;5025619;28;20049;-14
2023/01/18 11:03:50;;;;;;;0.57;0.57;;;18.70;62.70;;;;;;5028920;28;20395;-13
2023/01/18 11:06:18;;;;;;;0.60;0.60;;;18.60;62.70;;;;;;5027746;28;20069;-13
2023/01/18 11:08:43;;;;;;;0.63;0.60;;;18.60;62.80;;;;;;5026267;28;20119;-13
2023/01/18 11:14:24;;;;;;;0.57;0.50;;;18.60;62.80;;;;;;5027555;28;20695;-20
2023/01/18 11:17:11;;;;;;;0.98;0.70;;;18.50;62.90;;;;;;5025075;28;20038;-13
2023/01/18 11:19:37;;;;;;;0.50;0.50;;;18.60;62.90;;;;;;5027249;28;20041;-14
2023/01/18 11:22:03;;;;;;;0.63;0.60;;;18.60;62.80;;;;;;5027206;28;20068;-14
2023/01/18 11:24:29;;;;;;;0.63;0.63;;;18.50;62.80;;;;;;5027206;28;20061;-13
2023/01/18 11:26:59;;;;;;;0.60;0.60;;;18.50;63.00;;;;;;5025865;28;20041;-14
2023/01/18 11:29:29;;;;;;;0.50;0.50;;;18.40;63.00;;;;;;5022469;28;20046;-20
2023/01/18 11:31:55;;;;;;;0.60;0.60;;;18.50;63.00;;;;;;5026125;28;20495;-14
2023/01/18 11:34:30;;;;;;;0.60;0.60;;;18.50;63.10;;;;;;5026892;28;20128;-13
2023/01/18 11:36:56;;;;;;;0.55;0.55;;;18.50;62.80;;;;;;5024551;28;20036;-19
2023/01/18 11:39:23;;;;;;;0.90;0.70;;;18.50;62.60;;;;;;5026484;28;20132;-13
2023/01/18 11:41:49;;;;;;;0.52;0.52;;;18.50;62.70;;;;;;5023048;28;20067;-10
2023/01/18 11:44:26;;;;;;;0.75;0.75;;;18.50;62.60;;;;;;5028012;28;20426;-13
2023/01/18 11:46:55;;;;;;;0.60;0.60;;;18.50;62.80;;;;;;5027330;28;20037;-15
2023/01/18 11:49:23;;;;;;;0.65;0.65;;;18.60;62.60;;;;;;5027439;28;20045;-13
2023/01/18 11:52:01;;;;;;;0.50;0.50;;;18.50;62.30;;;;;;5026950;28;20065;-21
2023/01/18 11:54:34;;;;;;;0.85;0.85;;;18.60;62.30;;;;;;5026193;28;20453;-13
2023/01/18 11:57:01;;;;;;;0.50;0.50;;;18.50;62.10;;;;;;5025177;28;20034;-13
2023/01/18 11:59:29;;;;;;;0.60;0.60;;;18.50;62.40;;;;;;5026167;28;20049;-13
2023/01/18 12:02:32;;;;;;;0.75;0.70;;;18.40;62.50;;;;;;5025511;28;20043;-14
2023/01/18 12:05:01;;;;;;;0.73;0.73;;;18.40;62.60;;;;;;5025336;28;20056;-14
2023/01/18 12:07:26;;;;;;;0.52;0.52;;;18.40;62.80;;;;;;5026825;28;20052;-14
2023/01/18 12:09:55;;;;;;;0.60;0.52;;;18.30;62.70;;;;;;5025089;28;20041;-13
2023/01/18 12:12:55;;;;;;;0.60;0.60;;;18.30;63.90;;;;;;5025973;28;20056;-22
2023/01/18 12:15:44;;;;;;;0.43;0.43;;;18.30;63.10;;;;;;5023408;28;20120;-13
2023/01/18 12:18:33;;;;;;;0.68;0.68;;;18.30;63.00;;;;;;5023511;28;20041;-20
2023/01/18 12:21:19;;;;;;;0.50;0.50;;;18.30;62.90;;;;;;5023632;28;20568;-14
2023/01/18 12:24:06;;;;;;;0.75;0.60;;;18.30;63.10;;;;;;5025964;28;20042;-14
2023/01/18 12:26:49;;;;;;;0.60;0.60;;;18.20;63.10;;;;;;5026900;28;20045;-14
2023/01/18 12:29:43;;;;;;;0.80;0.70;;;18.20;63.10;;;;;;5025169;28;20041;-14
2023/01/18 12:32:21;;;;;;;0.70;0.70;;;18.20;63.10;;;;;;5023850;28;20045;-13
2023/01/18 12:35:16;;;;;;;0.50;0.50;;;18.20;63.30;;;;;;5025863;28;20132;-14
2023/01/18 12:38:10;;;;;;;0.40;0.40;;;18.30;63.20;;;;;;5028719;28;20041;-14
2023/01/18 12:40:39;;;;;;;0.50;0.50;;;18.30;63.10;;;;;;5021293;28;20120;-14
2023/01/18 12:43:11;;;;;;;0.80;0.80;;;18.30;62.80;;;;;;5022037;28;20056;-15
2023/01/18 12:45:51;;;;;;;0.43;0.43;;;18.30;63.00;;;;;;5026060;28;20049;-14
2023/01/18 12:48:34;;;;;;;0.35;0.35;;;18.30;63.00;;;;;;5024059;28;20139;-13
2023/01/18 12:51:00;;;;;;;0.60;0.60;;;18.30;62.90;;;;;;5022532;28;20098;-13
2023/01/18 12:53:40;;;;;;;0.50;0.50;;;18.30;63.60;;;;;;5008616;28;20456;-16
2023/01/18 12:56:12;;;;;;;0.45;0.45;;;18.30;62.70;;;;;;5025445;28;20049;-14
2023/01/18 12:58:37;;;;;;;0.50;0.50;;;18.30;62.90;;;;;;5025836;28;20057;-13
2023/01/18 13:01:04;;;;;;;0.65;0.43;;;18.30;62.70;;;;;;5024907;28;20055;-13
2023/01/18 13:03:50;;;;;;;0.40;0.40;;;18.30;62.80;;;;;;5025681;28;20256;-14
2023/01/18 13:06:17;;;;;;;0.40;0.40;;;18.30;62.70;;;;;;5024835;28;20144;-13
2023/01/18 13:08:55;;;;;;;0.45;0.40;;;18.40;62.60;;;;;;5010066;28;20042;-14
2023/01/18 13:11:35;;;;;;;0.40;0.40;;;18.50;61.90;;;;;;5024994;28;20045;-13
2023/01/18 13:14:32;;;;;;;0.50;0.50;;;18.50;62.10;;;;;;5025316;28;20045;-18
2023/01/18 13:17:15;;;;;;;0.50;0.50;;;18.50;62.00;;;;;;5023319;28;20038;-14
2023/01/18 13:19:50;;;;;;;0.50;0.50;;;18.40;62.20;;;;;;5025043;28;21796;-15
2023/01/18 13:22:15;;;;;;;0.50;0.35;;;18.50;62.10;;;;;;5024647;28;20050;-13
2023/01/18 13:24:45;;;;;;;0.40;0.40;;;18.50;61.80;;;;;;5026487;28;20449;-14
2023/01/18 13:27:14;;;;;;;0.30;0.30;;;18.30;62.50;;;;;;5025936;28;20049;-13
2023/01/18 13:29:40;;;;;;;0.30;0.30;;;18.40;62.50;;;;;;5025630;28;20042;-14
2023/01/18 13:32:26;;;;;;;0.35;0.35;;;18.40;62.30;;;;;;5026083;28;20044;-13
2023/01/18 13:34:59;;;;;;;0.40;0.40;;;18.20;62.70;;;;;;5026197;28;20052;-22
2023/01/18 13:37:52;;;;;;;0.55;0.50;;;18.20;63.10;;;;;;5025850;28;20044;-14